createdAt,value
2023-04-26T00:00:21.680Z,7.23
2023-04-26T00:02:49.914Z,8.03
2023-04-26T00:05:19.676Z,5.77
2023-04-26T00:07:50.386Z,7.23
2023-04-26T00:10:18.607Z,7.07
2023-04-26T00:12:46.578Z,8.77
2023-04-26T00:15:14.728Z,6.27
2023-04-26T00:17:42.879Z,5.83
2023-04-26T00:20:13.605Z,7.77
2023-04-26T00:22:43.024Z,8.00
2023-04-26T00:25:12.599Z,9.83
2023-04-26T00:27:40.609Z,7.10
2023-04-26T00:30:10.609Z,6.47
2023-04-26T00:32:38.637Z,8.83
2023-04-26T00:35:09.035Z,9.60
2023-04-26T00:37:37.081Z,8.83
2023-04-26T00:40:07.798Z,10.53
2023-04-26T00:42:36.054Z,6.70
2023-04-26T00:45:05.022Z,9.00
2023-04-26T00:47:33.566Z,15.80
2023-04-26T00:50:02.244Z,7.17
2023-04-26T00:52:31.240Z,8.83
2023-04-26T00:54:59.317Z,10.43
2023-04-26T00:57:28.825Z,10.17
2023-04-26T00:59:56.925Z,9.57
2023-04-26T01:02:25.196Z,8.97
2023-04-26T01:04:53.277Z,11.93
2023-04-26T01:07:21.567Z,9.00
2023-04-26T01:09:50.738Z,12.27
2023-04-26T01:12:18.918Z,12.07
2023-04-26T01:14:48.765Z,11.80
2023-04-26T01:17:17.138Z,7.70
2023-04-26T01:19:49.084Z,7.83
2023-04-26T01:22:17.817Z,9.10
2023-04-26T01:24:49.786Z,12.90
2023-04-26T01:27:18.165Z,7.60
2023-04-26T01:29:46.249Z,10.23
2023-04-26T01:32:14.227Z,8.93
2023-04-26T01:34:42.210Z,11.37
2023-04-26T01:37:12.148Z,9.50
2023-04-26T01:39:40.289Z,9.23
2023-04-26T01:42:09.578Z,7.33
2023-04-26T01:44:37.561Z,9.53
2023-04-26T01:47:06.140Z,6.63
2023-04-26T01:49:34.312Z,7.20
2023-04-26T01:52:02.640Z,6.53
2023-04-26T01:54:31.435Z,9.97
2023-04-26T01:57:02.555Z,12.77
2023-04-26T01:59:31.965Z,5.50
2023-04-26T02:02:00.271Z,5.77
2023-04-26T02:04:28.871Z,6.00
2023-04-26T02:06:57.209Z,7.63
2023-04-26T02:09:25.448Z,6.30
2023-04-26T02:11:53.417Z,8.57
2023-04-26T02:14:21.441Z,7.40
2023-04-26T02:16:51.867Z,6.87
2023-04-26T02:19:19.885Z,6.70
2023-04-26T02:21:57.047Z,9.27
2023-04-26T02:24:25.322Z,7.33
2023-04-26T02:26:54.399Z,4.90
2023-04-26T02:29:29.783Z,6.80
2023-04-26T02:32:11.875Z,8.90
2023-04-26T02:34:39.880Z,9.13
2023-04-26T02:37:07.911Z,6.03
2023-04-26T02:39:36.053Z,6.50
2023-04-26T02:42:04.286Z,10.70
2023-04-26T02:44:32.460Z,7.70
2023-04-26T02:47:00.676Z,9.47
2023-04-26T02:49:31.638Z,11.07
2023-04-26T02:52:00.454Z,9.57
2023-04-26T02:54:29.330Z,10.73
2023-04-26T02:56:58.103Z,10.20
2023-04-26T02:59:26.301Z,11.23
2023-04-26T03:01:54.459Z,15.13
2023-04-26T03:04:22.869Z,18.13
2023-04-26T03:06:52.189Z,14.57
2023-04-26T03:09:20.394Z,11.27
2023-04-26T03:11:50.088Z,18.57
2023-04-26T03:14:18.531Z,18.40
2023-04-26T03:16:48.480Z,16.17
2023-04-26T03:19:16.582Z,20.17
2023-04-26T03:21:45.383Z,16.90
2023-04-26T03:24:14.767Z,13.63
2023-04-26T03:26:42.742Z,15.60
2023-04-26T03:29:10.739Z,19.13
2023-04-26T03:31:39.320Z,17.47
2023-04-26T03:34:07.978Z,22.17
2023-04-26T03:36:36.283Z,20.60
2023-04-26T03:39:06.674Z,17.33
2023-04-26T03:41:39.486Z,12.97
2023-04-26T03:44:08.830Z,20.03
2023-04-26T03:46:36.935Z,17.07
2023-04-26T03:49:05.289Z,24.23
2023-04-26T03:51:33.299Z,22.83
2023-04-26T03:54:01.314Z,27.87
2023-04-26T03:56:29.308Z,26.27
2023-04-26T03:58:58.945Z,29.37
2023-04-26T04:01:28.615Z,25.53
2023-04-26T04:03:57.131Z,19.00
2023-04-26T04:06:25.716Z,25.57
2023-04-26T04:08:53.961Z,22.60
2023-04-26T04:11:23.513Z,19.90
2023-04-26T04:13:52.211Z,17.17
2023-04-26T04:16:21.894Z,19.73
2023-04-26T04:18:50.451Z,19.13
2023-04-26T04:21:18.686Z,28.00
2023-04-26T04:23:46.738Z,25.33
2023-04-26T04:26:15.459Z,21.87
2023-04-26T04:28:45.536Z,20.13
2023-04-26T04:31:13.938Z,18.43
2023-04-26T04:33:43.417Z,22.97
2023-04-26T04:36:11.605Z,21.30
2023-04-26T04:38:39.821Z,25.77
2023-04-26T04:41:10.294Z,24.43
2023-04-26T04:43:38.472Z,23.10
2023-04-26T04:46:07.530Z,18.63
2023-04-26T04:48:35.549Z,25.33
2023-04-26T04:51:04.992Z,17.33
2023-04-26T04:53:32.974Z,22.10
2023-04-26T04:56:01.432Z,19.67
2023-04-26T04:58:29.411Z,27.30
2023-04-26T05:01:01.066Z,22.47
2023-04-26T05:03:43.036Z,20.40
2023-04-26T05:06:12.446Z,17.97
2023-04-26T05:08:40.792Z,24.73
2023-04-26T05:11:10.236Z,19.37
2023-04-26T05:13:38.287Z,19.30
2023-04-26T05:16:07.714Z,17.50
2023-04-26T05:18:35.928Z,17.33
2023-04-26T05:21:04.151Z,25.60
2023-04-26T05:23:34.331Z,30.00
2023-04-26T05:26:04.691Z,19.87
2023-04-26T05:28:55.944Z,20.07
2023-04-26T05:31:47.070Z,20.87
2023-04-26T05:34:24.547Z,21.90
2023-04-26T05:36:56.789Z,20.27
2023-04-26T05:39:26.614Z,19.73
2023-04-26T05:41:54.865Z,13.60
2023-04-26T05:44:23.007Z,19.57
2023-04-26T05:46:51.016Z,19.40
2023-04-26T05:49:19.300Z,16.47
2023-04-26T05:51:47.292Z,17.07
2023-04-26T05:54:15.491Z,19.80
2023-04-26T05:56:44.858Z,15.67
2023-04-26T05:59:13.670Z,16.60
2023-04-26T06:01:41.764Z,13.30
2023-04-26T06:04:10.088Z,14.23
2023-04-26T06:06:48.852Z,13.57
2023-04-26T06:09:18.439Z,15.50
2023-04-26T06:11:49.609Z,15.27
2023-04-26T06:14:29.220Z,15.40
2023-04-26T06:16:59.641Z,9.87
2023-04-26T06:19:29.309Z,12.47
2023-04-26T06:21:57.687Z,15.53
2023-04-26T06:24:26.135Z,13.63
2023-04-26T06:26:55.530Z,10.70
2023-04-26T06:29:23.660Z,17.13
2023-04-26T06:31:51.745Z,15.20
2023-04-26T06:34:22.165Z,8.20
2023-04-26T06:36:50.202Z,13.47
2023-04-26T06:39:18.779Z,7.20
2023-04-26T06:41:46.913Z,11.23
2023-04-26T06:44:26.976Z,10.07
2023-04-26T06:47:02.784Z,8.63
2023-04-26T06:49:30.876Z,16.30
2023-04-26T06:51:59.005Z,5.90
2023-04-26T06:54:29.969Z,11.33
2023-04-26T06:56:59.368Z,12.83
2023-04-26T06:59:30.404Z,13.30
2023-04-26T07:01:58.979Z,8.70
2023-04-26T07:04:27.522Z,12.73
2023-04-26T07:06:55.923Z,10.00
2023-04-26T07:09:24.350Z,10.73
2023-04-26T07:11:52.428Z,9.13
2023-04-26T07:14:20.669Z,12.63
2023-04-26T07:16:49.978Z,6.07
2023-04-26T07:19:18.018Z,10.97
2023-04-26T07:21:46.201Z,12.07
2023-04-26T07:24:14.735Z,13.50
2023-04-26T07:26:43.092Z,14.63
2023-04-26T07:29:12.188Z,10.80
2023-04-26T07:31:40.382Z,10.90
2023-04-26T07:34:09.989Z,18.50
2023-04-26T07:36:38.143Z,10.17
2023-04-26T07:39:06.748Z,9.90
2023-04-26T07:41:34.832Z,8.07
2023-04-26T07:44:03.029Z,7.67
2023-04-26T07:46:31.074Z,14.17
2023-04-26T07:48:59.154Z,12.50
2023-04-26T07:51:28.647Z,13.77
2023-04-26T07:53:56.997Z,13.23
2023-04-26T07:56:25.298Z,12.37
2023-04-26T07:58:53.266Z,9.30
2023-04-26T08:01:21.866Z,4.97
2023-04-26T08:03:50.384Z,12.60
2023-04-26T08:06:20.733Z,7.50
2023-04-26T08:08:50.885Z,8.57
2023-04-26T08:11:19.254Z,6.33
2023-04-26T08:13:47.507Z,7.30
2023-04-26T08:16:16.740Z,10.63
2023-04-26T08:18:46.807Z,12.07
2023-04-26T08:21:15.244Z,6.63
2023-04-26T08:23:43.457Z,13.80
2023-04-26T08:26:12.965Z,10.47
2023-04-26T08:28:41.325Z,8.20
2023-04-26T08:31:10.162Z,9.73
2023-04-26T08:33:38.264Z,10.70
2023-04-26T08:36:07.196Z,11.17
2023-04-26T08:38:35.860Z,7.87
2023-04-26T08:41:06.158Z,10.20
2023-04-26T08:43:39.608Z,6.27
2023-04-26T08:46:12.151Z,4.90
2023-04-26T08:48:40.574Z,8.37
2023-04-26T08:51:11.510Z,7.30
2023-04-26T08:53:40.812Z,6.07
2023-04-26T08:56:11.779Z,9.43
2023-04-26T08:58:41.669Z,12.20
2023-04-26T09:01:11.466Z,9.93
2023-04-26T09:03:39.836Z,8.13
2023-04-26T09:06:08.715Z,10.77
2023-04-26T09:08:40.465Z,7.50
2023-04-26T09:11:08.420Z,5.63
2023-04-26T09:13:36.492Z,8.80
2023-04-26T09:16:06.344Z,6.07
2023-04-26T09:18:34.915Z,7.73
2023-04-26T09:21:05.423Z,8.47
2023-04-26T09:23:33.989Z,11.17
2023-04-26T09:26:21.611Z,5.97
2023-04-26T09:28:50.389Z,7.33
2023-04-26T09:31:39.752Z,6.97
2023-04-26T09:34:08.778Z,5.37
2023-04-26T09:36:48.441Z,7.57
2023-04-26T09:39:16.806Z,7.47
2023-04-26T09:41:45.835Z,5.97
2023-04-26T09:44:24.015Z,8.20
2023-04-26T09:47:04.886Z,8.03
2023-04-26T09:49:44.460Z,5.17
2023-04-26T09:52:12.563Z,6.13
2023-04-26T09:54:42.269Z,7.43
2023-04-26T09:57:10.582Z,7.10
2023-04-26T09:59:46.858Z,5.50
2023-04-26T10:02:21.043Z,7.80
2023-04-26T10:04:51.309Z,6.87
2023-04-26T10:07:21.698Z,5.77
2023-04-26T10:09:52.203Z,6.67
2023-04-26T10:12:21.268Z,5.00
2023-04-26T10:14:49.675Z,7.57
2023-04-26T10:17:21.817Z,4.77
2023-04-26T10:19:54.436Z,6.47
2023-04-26T10:22:25.667Z,5.73
2023-04-26T10:24:55.870Z,7.13
2023-04-26T10:27:52.741Z,5.90
2023-04-26T10:30:23.990Z,4.80
2023-04-26T10:33:23.796Z,6.13
2023-04-26T10:36:10.106Z,8.67
2023-04-26T10:38:40.315Z,7.57
2023-04-26T10:41:44.915Z,5.83
2023-04-26T10:44:38.436Z,9.00
2023-04-26T10:47:07.064Z,6.43
2023-04-26T10:49:48.397Z,7.43
2023-04-26T10:52:17.486Z,6.40
2023-04-26T10:54:51.078Z,4.27
2023-04-26T10:57:19.969Z,7.50
2023-04-26T11:00:34.021Z,7.93
2023-04-26T11:03:08.852Z,7.73
2023-04-26T11:05:50.837Z,8.30
2023-04-26T11:08:21.248Z,4.17
2023-04-26T11:10:58.644Z,6.87
2023-04-26T11:13:26.731Z,7.17
2023-04-26T11:15:55.553Z,7.27
2023-04-26T11:18:23.669Z,7.43
2023-04-26T11:20:53.177Z,6.83
2023-04-26T11:23:21.319Z,9.20
2023-04-26T11:25:49.552Z,5.33
2023-04-26T11:28:19.492Z,5.80
2023-04-26T11:30:47.506Z,7.20
2023-04-26T11:33:22.306Z,8.93
2023-04-26T11:35:50.686Z,8.47
2023-04-26T11:38:23.688Z,6.00
2023-04-26T11:40:56.164Z,5.00
2023-04-26T11:43:24.373Z,8.17
2023-04-26T11:45:52.439Z,9.57
2023-04-26T11:48:20.660Z,9.90
2023-04-26T11:50:48.743Z,6.13
2023-04-26T11:53:17.371Z,4.93
2023-04-26T11:55:46.838Z,9.27
2023-04-26T11:58:15.511Z,8.00
2023-04-26T12:00:59.793Z,7.27
2023-04-26T12:03:32.379Z,14.87
2023-04-26T12:06:01.354Z,6.63
2023-04-26T12:08:29.534Z,4.73
2023-04-26T12:11:03.016Z,8.37
2023-04-26T12:13:32.557Z,9.77
2023-04-26T12:16:00.596Z,5.40
2023-04-26T12:18:32.837Z,9.17
2023-04-26T12:21:01.820Z,6.80
2023-04-26T12:23:39.303Z,9.83
2023-04-26T12:26:11.197Z,11.43
2023-04-26T12:28:39.641Z,8.23
2023-04-26T12:31:08.333Z,5.87
2023-04-26T12:33:37.018Z,6.53
2023-04-26T12:36:09.752Z,7.30
2023-04-26T12:38:38.147Z,6.17
2023-04-26T12:41:07.747Z,6.13
2023-04-26T12:43:35.733Z,4.53
2023-04-26T12:46:03.790Z,2.67
2023-04-26T12:48:31.917Z,10.20
2023-04-26T12:51:00.382Z,6.70
2023-04-26T12:53:28.386Z,4.63
2023-04-26T12:55:56.850Z,4.03
2023-04-26T12:58:26.502Z,6.10
2023-04-26T13:00:54.659Z,5.90
2023-04-26T13:03:22.918Z,7.90
2023-04-26T13:05:51.723Z,3.10
2023-04-26T13:08:25.856Z,8.07
2023-04-26T13:10:54.138Z,5.03
2023-04-26T13:13:29.296Z,5.97
2023-04-26T13:16:06.186Z,13.17
2023-04-26T13:18:34.387Z,8.33
2023-04-26T13:21:02.399Z,15.23
2023-04-26T13:23:30.758Z,5.23
2023-04-26T13:25:58.784Z,7.43
2023-04-26T13:28:26.733Z,6.67
2023-04-26T13:30:55.878Z,7.57
2023-04-26T13:33:25.724Z,11.23
2023-04-26T13:35:53.831Z,8.80
2023-04-26T13:38:21.907Z,6.50
2023-04-26T13:40:49.928Z,10.43
2023-04-26T13:43:18.046Z,7.43
2023-04-26T13:45:46.286Z,12.47
2023-04-26T13:48:17.475Z,12.10
2023-04-26T13:50:47.110Z,14.30
2023-04-26T13:53:15.112Z,24.50
2023-04-26T13:55:43.415Z,7.03
2023-04-26T13:58:11.552Z,5.00
2023-04-26T14:00:39.682Z,7.50
2023-04-26T14:03:07.826Z,9.67
2023-04-26T14:05:35.915Z,5.37
2023-04-26T14:08:06.080Z,6.20
2023-04-26T14:10:34.372Z,6.53
2023-04-26T14:13:02.490Z,8.13
2023-04-26T14:15:30.503Z,9.43
2023-04-26T14:17:58.580Z,5.07
2023-04-26T14:20:26.766Z,6.30
2023-04-26T14:22:54.856Z,9.50
2023-04-26T14:25:24.397Z,10.50
2023-04-26T14:27:53.567Z,4.73
2023-04-26T14:30:21.997Z,4.87
2023-04-26T14:32:50.105Z,6.77
2023-04-26T14:35:18.240Z,12.63
2023-04-26T14:37:46.272Z,11.43
2023-04-26T14:40:14.821Z,7.17
2023-04-26T14:42:46.264Z,8.27
2023-04-26T14:45:14.821Z,4.40
2023-04-26T14:47:43.065Z,4.70
2023-04-26T14:50:13.731Z,5.33
2023-04-26T14:52:42.189Z,9.53
2023-04-26T14:55:10.692Z,13.03
2023-04-26T14:57:41.324Z,11.33
2023-04-26T15:00:15.401Z,5.70
2023-04-26T15:02:44.947Z,8.30
2023-04-26T15:05:14.057Z,5.27
2023-04-26T15:07:42.400Z,6.13
2023-04-26T15:10:11.160Z,7.63
2023-04-26T15:12:39.428Z,6.47
2023-04-26T15:15:08.643Z,7.27
2023-04-26T15:17:38.370Z,8.27
2023-04-26T15:20:09.226Z,10.20
2023-04-26T15:22:38.940Z,9.43
2023-04-26T15:25:08.866Z,8.03
2023-04-26T15:27:37.320Z,7.90
2023-04-26T15:30:06.294Z,6.20
2023-04-26T15:32:34.263Z,10.27
2023-04-26T15:35:05.350Z,4.90
2023-04-26T15:37:33.395Z,5.37
2023-04-26T15:40:01.624Z,4.67
2023-04-26T15:42:29.595Z,8.80
2023-04-26T15:44:57.689Z,5.73
2023-04-26T15:47:25.967Z,3.43
2023-04-26T15:49:54.781Z,6.50
2023-04-26T15:52:24.143Z,3.13
2023-04-26T15:54:52.670Z,9.13
2023-04-26T15:57:20.690Z,7.00
2023-04-26T15:59:48.701Z,7.07
2023-04-26T16:02:17.199Z,8.70
2023-04-26T16:04:45.704Z,7.00
2023-04-26T16:07:14.530Z,6.57
2023-04-26T16:09:44.802Z,9.67
2023-04-26T16:12:12.874Z,5.63
2023-04-26T16:14:41.069Z,8.83
2023-04-26T16:17:09.216Z,8.10
2023-04-26T16:19:37.304Z,5.63
2023-04-26T16:22:05.570Z,8.17
2023-04-26T16:24:33.529Z,4.13
2023-04-26T16:27:03.145Z,7.60
2023-04-26T16:29:31.188Z,7.53
2023-04-26T16:31:59.308Z,8.90
2023-04-26T16:34:29.602Z,13.47
2023-04-26T16:36:57.950Z,14.63
2023-04-26T16:39:28.294Z,9.80
2023-04-26T16:41:59.594Z,11.47
2023-04-26T16:44:29.003Z,13.07
2023-04-26T16:46:59.877Z,9.33
2023-04-26T16:49:28.278Z,8.10
2023-04-26T16:51:59.025Z,10.17
2023-04-26T16:54:29.800Z,7.00
2023-04-26T16:57:03.682Z,7.33
2023-04-26T16:59:33.168Z,12.40
2023-04-26T17:02:01.655Z,7.70
2023-04-26T17:04:32.601Z,9.93
2023-04-26T17:07:04.787Z,6.93
2023-04-26T17:09:32.926Z,11.37
2023-04-26T17:12:00.966Z,8.97
2023-04-26T17:14:34.795Z,10.83
2023-04-26T17:17:02.891Z,13.67
2023-04-26T17:19:32.865Z,10.23
2023-04-26T17:22:03.358Z,9.60
2023-04-26T17:24:33.336Z,13.23
2023-04-26T17:27:01.568Z,12.30
2023-04-26T17:29:31.271Z,9.67
2023-04-26T17:32:01.152Z,13.53
2023-04-26T17:34:29.290Z,13.90
2023-04-26T17:36:57.428Z,13.33
2023-04-26T17:39:25.476Z,9.03
2023-04-26T17:41:53.673Z,14.60
2023-04-26T17:44:24.803Z,8.57
2023-04-26T17:46:55.311Z,15.23
2023-04-26T17:49:27.269Z,12.70
2023-04-26T17:51:57.612Z,10.07
2023-04-26T17:54:28.260Z,12.60
2023-04-26T17:57:02.952Z,13.00
2023-04-26T17:59:35.746Z,12.63
2023-04-26T18:02:03.845Z,10.20
2023-04-26T18:04:34.854Z,11.40
2023-04-26T18:07:07.737Z,8.87
2023-04-26T18:09:38.016Z,9.83
2023-04-26T18:12:06.162Z,7.40
2023-04-26T18:14:34.228Z,7.57
2023-04-26T18:17:12.111Z,8.73
2023-04-26T18:19:45.329Z,10.83
2023-04-26T18:22:13.691Z,11.47
2023-04-26T18:24:50.880Z,8.23
2023-04-26T18:27:30.554Z,9.27
2023-04-26T18:30:12.871Z,8.30
2023-04-26T18:32:41.645Z,14.73
2023-04-26T18:35:11.816Z,12.30
2023-04-26T18:37:41.100Z,13.63
2023-04-26T18:40:10.218Z,17.30
2023-04-26T18:42:38.904Z,29.80
2023-04-26T18:45:07.980Z,39.50
2023-04-26T18:47:36.210Z,34.37
2023-04-26T18:50:04.569Z,25.77
2023-04-26T18:52:35.186Z,18.80
2023-04-26T18:55:03.420Z,18.07
2023-04-26T18:57:32.058Z,15.73
2023-04-26T19:00:00.355Z,20.93
2023-04-26T19:02:28.554Z,19.80
2023-04-26T19:04:57.633Z,21.27
2023-04-26T19:07:25.973Z,22.10
2023-04-26T19:09:59.639Z,22.47
2023-04-26T19:12:28.443Z,13.80
2023-04-26T19:14:56.808Z,13.13
2023-04-26T19:17:24.983Z,17.03
2023-04-26T19:19:53.323Z,15.13
2023-04-26T19:22:21.396Z,13.67
2023-04-26T19:24:50.942Z,21.37
2023-04-26T19:27:20.644Z,16.40
2023-04-26T19:29:48.683Z,15.60
2023-04-26T19:32:18.940Z,15.97
2023-04-26T19:34:47.337Z,19.00
2023-04-26T19:37:15.437Z,18.00
2023-04-26T19:39:43.806Z,13.67
2023-04-26T19:42:11.986Z,12.63
2023-04-26T19:44:41.402Z,12.27
2023-04-26T19:47:09.793Z,13.53
2023-04-26T19:49:37.974Z,16.40
2023-04-26T19:52:06.007Z,14.27
2023-04-26T19:54:34.140Z,19.73
2023-04-26T19:57:03.843Z,16.80
2023-04-26T19:59:32.034Z,21.63
2023-04-26T20:02:01.598Z,22.50
2023-04-26T20:04:30.154Z,23.87
2023-04-26T20:06:58.406Z,16.87
2023-04-26T20:09:26.885Z,23.17
2023-04-26T20:11:54.880Z,18.50
2023-04-26T20:14:23.071Z,16.70
2023-04-26T20:16:51.761Z,18.93
2023-04-26T20:19:21.169Z,12.47
2023-04-26T20:21:49.841Z,14.00
2023-04-26T20:24:17.969Z,15.13
2023-04-26T20:26:46.113Z,13.47
2023-04-26T20:29:14.161Z,11.27
2023-04-26T20:31:42.372Z,15.77
2023-04-26T20:34:10.381Z,12.50
2023-04-26T20:36:40.283Z,14.70
2023-04-26T20:39:09.837Z,11.83
2023-04-26T20:41:38.193Z,9.67
2023-04-26T20:44:06.277Z,9.77
2023-04-26T20:46:35.179Z,11.83
2023-04-26T20:49:04.112Z,10.20
2023-04-26T20:51:33.140Z,8.70
2023-04-26T20:54:02.479Z,16.87
2023-04-26T20:56:30.527Z,13.57
2023-04-26T20:58:58.850Z,14.17
2023-04-26T21:01:27.915Z,9.33
2023-04-26T21:03:56.181Z,13.43
2023-04-26T21:06:24.352Z,9.63
2023-04-26T21:08:52.327Z,9.17
2023-04-26T21:11:21.836Z,9.33
2023-04-26T21:13:50.029Z,10.57
2023-04-26T21:16:18.468Z,10.33
2023-04-26T21:18:46.712Z,12.40
2023-04-26T21:21:14.956Z,12.30
2023-04-26T21:23:43.313Z,15.27
2023-04-26T21:26:11.625Z,13.17
2023-04-26T21:28:41.221Z,10.17
2023-04-26T21:31:09.952Z,10.87
2023-04-26T21:33:38.085Z,11.20
2023-04-26T21:36:06.876Z,10.23
2023-04-26T21:38:35.140Z,9.27
2023-04-26T21:41:03.328Z,14.33
2023-04-26T21:43:31.710Z,9.00
2023-04-26T21:46:01.416Z,10.80
2023-04-26T21:48:29.659Z,9.43
2023-04-26T21:50:57.825Z,9.63
2023-04-26T21:53:26.382Z,9.70
2023-04-26T21:55:55.117Z,10.37
2023-04-26T21:58:23.580Z,15.37
2023-04-26T22:00:52.196Z,12.97
2023-04-26T22:03:22.006Z,15.30
2023-04-26T22:05:50.363Z,11.00
2023-04-26T22:08:18.602Z,14.93
2023-04-26T22:10:46.834Z,11.40
2023-04-26T22:13:15.343Z,9.80
2023-04-26T22:15:43.741Z,11.23
2023-04-26T22:18:11.955Z,14.27
2023-04-26T22:20:41.504Z,12.30
2023-04-26T22:23:10.183Z,15.63
2023-04-26T22:25:39.261Z,8.30
2023-04-26T22:28:07.688Z,12.70
2023-04-26T22:30:35.926Z,9.40
2023-04-26T22:33:04.249Z,13.07
2023-04-26T22:35:32.511Z,13.23
2023-04-26T22:38:02.157Z,13.13
2023-04-26T22:40:31.626Z,13.17
2023-04-26T22:43:00.001Z,15.07
2023-04-26T22:45:28.257Z,12.33
2023-04-26T22:47:56.380Z,14.47
2023-04-26T22:50:24.891Z,11.77
2023-04-26T22:52:53.060Z,13.93
2023-04-26T22:55:22.660Z,14.60
2023-04-26T22:57:50.777Z,15.10
2023-04-26T23:00:20.083Z,12.90
2023-04-26T23:02:50.504Z,11.90
2023-04-26T23:05:19.733Z,10.77
2023-04-26T23:07:47.845Z,14.40
2023-04-26T23:10:16.371Z,11.73
2023-04-26T23:12:45.982Z,14.00
2023-04-26T23:15:14.228Z,10.10
2023-04-26T23:17:42.721Z,11.47
2023-04-26T23:20:15.824Z,15.43
2023-04-26T23:22:44.689Z,12.50
2023-04-26T23:25:12.852Z,9.43
2023-04-26T23:27:41.078Z,9.80
2023-04-26T23:30:11.535Z,13.90
2023-04-26T23:32:39.974Z,9.83
2023-04-26T23:35:09.060Z,12.43
2023-04-26T23:37:37.224Z,10.37
2023-04-26T23:40:08.703Z,17.23
2023-04-26T23:42:37.116Z,13.97
2023-04-26T23:45:07.757Z,12.13
2023-04-26T23:47:37.468Z,11.27
2023-04-26T23:50:06.216Z,11.17
2023-04-26T23:52:34.393Z,12.30
2023-04-26T23:55:03.433Z,12.00
2023-04-26T23:57:32.232Z,13.70
